Time;durP1;ratioP1;P1;durP2;ratioP2;P2;SDS_P1;SDS_P2;PMS_P1;PMS_P2;Temp;Humidity;BMP_temperature;BMP_pressure;BME280_temperature;BME280_humidity;BME280_pressure;Samples;Min_cycle;Max_cycle;Signal;HPM_P1;HPM_P2
2023/03/09 00:01:42;;;;;;;;;;;1.80;99.90;;;;;;4979018;28;20153;-72
2023/03/09 00:04:11;;;;;;;15.30;9.95;;;1.70;99.90;;;;;;4993023;28;20020;-72
2023/03/09 00:06:37;;;;;;;20.90;12.02;;;1.70;99.90;;;;;;4993409;28;20045;-72
2023/03/09 00:09:03;;;;;;;16.48;10.80;;;1.60;99.90;;;;;;5010712;28;20056;-73
2023/03/09 00:11:29;;;;;;;19.00;11.82;;;1.70;99.90;;;;;;5011156;28;20057;-73
2023/03/09 00:13:55;;;;;;;18.55;11.65;;;1.60;99.90;;;;;;4976228;28;20052;-72
2023/03/09 00:16:23;;;;;;;18.65;11.15;;;1.60;99.90;;;;;;5013162;28;20129;-73
2023/03/09 00:18:51;;;;;;;17.30;10.70;;;1.70;99.90;;;;;;4994444;28;20049;-72
2023/03/09 00:21:36;;;;;;;19.05;11.60;;;1.70;99.90;;;;;;4977878;28;20070;-73
2023/03/09 00:24:10;;;;;;;20.15;11.70;;;1.60;99.90;;;;;;5009622;28;20092;-71
2023/03/09 00:26:38;;;;;;;17.98;11.05;;;1.70;99.90;;;;;;4979198;28;20042;-71
2023/03/09 00:29:05;;;;;;;21.92;11.95;;;1.60;99.90;;;;;;4978891;28;20042;-72
2023/03/09 00:31:31;;;;;;;19.90;11.80;;;1.70;99.90;;;;;;4994655;28;20041;-71
2023/03/09 00:33:56;;;;;;;21.52;12.57;;;1.70;99.90;;;;;;4991469;28;20054;-71
2023/03/09 00:36:22;;;;;;;20.08;11.93;;;1.80;99.90;;;;;;5008048;28;20054;-72
2023/03/09 00:38:52;;;;;;;22.83;13.98;;;1.70;99.90;;;;;;4992061;28;20045;-71
2023/03/09 00:41:18;;;;;;;21.08;12.13;;;1.90;99.90;;;;;;5007136;28;20045;-71
2023/03/09 00:43:44;;;;;;;19.40;11.68;;;1.80;99.90;;;;;;4978276;28;20050;-71
2023/03/09 00:46:11;;;;;;;26.33;13.85;;;1.70;99.90;;;;;;4994250;28;20121;-72
2023/03/09 00:48:37;;;;;;;20.50;13.02;;;1.70;99.90;;;;;;5007161;28;20046;-71
2023/03/09 00:51:03;;;;;;;20.42;12.68;;;1.80;99.90;;;;;;4991274;28;20054;-72
2023/03/09 00:53:28;;;;;;;20.88;12.90;;;1.80;99.90;;;;;;4992251;28;20080;-72
2023/03/09 00:55:54;;;;;;;21.77;12.75;;;1.70;99.90;;;;;;5010413;28;20050;-72
2023/03/09 00:58:20;;;;;;;18.60;10.70;;;1.70;99.90;;;;;;4994224;28;20052;-72
2023/03/09 01:00:46;;;;;;;20.48;11.85;;;1.70;99.90;;;;;;4987545;28;20510;-72
2023/03/09 01:03:11;;;;;;;20.33;12.60;;;1.70;99.90;;;;;;4983716;28;20129;-72
2023/03/09 01:05:38;;;;;;;19.70;11.52;;;1.70;99.90;;;;;;4992666;28;20834;-72
2023/03/09 01:08:04;;;;;;;23.50;13.95;;;1.70;99.90;;;;;;4994625;28;20045;-72
2023/03/09 01:10:29;;;;;;;22.92;13.60;;;1.70;99.90;;;;;;5005432;28;20378;-72
2023/03/09 01:12:56;;;;;;;23.20;13.27;;;1.80;99.90;;;;;;4994101;28;20049;-72
2023/03/09 01:15:22;;;;;;;20.83;12.77;;;1.70;99.90;;;;;;5011168;28;20072;-72
2023/03/09 01:17:47;;;;;;;20.63;13.57;;;1.70;99.90;;;;;;5009849;28;20518;-72
2023/03/09 01:20:13;;;;;;;20.42;12.27;;;1.70;99.90;;;;;;5010513;28;20054;-72
2023/03/09 01:22:39;;;;;;;19.48;11.73;;;1.70;99.90;;;;;;4989216;28;20128;-72
2023/03/09 01:25:05;;;;;;;19.10;11.88;;;1.60;99.90;;;;;;5010390;28;20470;-72
2023/03/09 01:27:31;;;;;;;22.08;12.73;;;1.60;99.90;;;;;;4990010;28;20042;-72
2023/03/09 01:29:57;;;;;;;20.27;12.38;;;1.70;99.90;;;;;;5008924;28;20129;-72
2023/03/09 01:32:25;;;;;;;23.35;12.32;;;1.60;99.90;;;;;;5010043;28;20061;-72
2023/03/09 01:34:51;;;;;;;24.33;14.43;;;1.50;99.90;;;;;;5007153;28;20752;-72
2023/03/09 01:37:17;;;;;;;23.80;14.13;;;1.50;99.90;;;;;;4993800;28;20378;-72
2023/03/09 01:39:43;;;;;;;20.55;12.55;;;1.50;99.90;;;;;;4993287;28;20059;-72
2023/03/09 01:42:09;;;;;;;22.45;13.52;;;1.60;99.90;;;;;;5008333;28;20056;-72
2023/03/09 01:44:34;;;;;;;23.05;13.40;;;1.50;99.90;;;;;;5006007;28;20054;-72
2023/03/09 01:47:00;;;;;;;23.20;13.25;;;1.40;99.90;;;;;;4993629;28;20050;-72
2023/03/09 01:49:35;;;;;;;24.90;14.48;;;1.50;99.90;;;;;;4993571;28;20133;-72
2023/03/09 01:52:04;;;;;;;20.80;12.77;;;1.50;99.90;;;;;;4993951;28;20099;-72
2023/03/09 01:54:50;;;;;;;24.25;13.68;;;1.40;99.90;;;;;;4977817;28;20048;-72
2023/03/09 01:57:34;;;;;;;21.38;12.60;;;1.40;99.90;;;;;;5002162;28;20053;-71
2023/03/09 02:00:05;;;;;;;21.75;12.77;;;1.40;99.90;;;;;;5009793;28;20042;-71
2023/03/09 02:02:32;;;;;;;23.65;13.23;;;1.40;99.90;;;;;;4978036;28;20076;-71
2023/03/09 02:04:59;;;;;;;22.15;12.23;;;1.40;99.90;;;;;;5009852;28;20838;-71
2023/03/09 02:07:25;;;;;;;18.70;10.85;;;1.40;99.90;;;;;;4960985;28;20042;-71
2023/03/09 02:10:01;;;;;;;20.38;11.15;;;1.40;99.90;;;;;;5009633;28;20061;-71
2023/03/09 02:12:27;;;;;;;20.73;11.88;;;1.50;99.90;;;;;;4994008;28;20049;-71
2023/03/09 02:14:52;;;;;;;20.45;11.85;;;1.50;99.90;;;;;;4972433;28;20050;-71
2023/03/09 02:17:18;;;;;;;18.27;10.95;;;1.50;99.90;;;;;;4995271;28;20042;-71
2023/03/09 02:20:06;;;;;;;16.83;10.23;;;1.50;99.90;;;;;;5013550;28;20483;-71
2023/03/09 02:22:34;;;;;;;18.55;10.95;;;1.50;99.90;;;;;;5014801;28;20069;-71
2023/03/09 02:25:02;;;;;;;21.67;12.43;;;1.40;99.90;;;;;;4987832;28;20133;-71
2023/03/09 02:27:28;;;;;;;20.17;11.27;;;1.40;99.90;;;;;;5014005;28;20100;-71
2023/03/09 02:29:55;;;;;;;15.75;9.95;;;1.30;99.90;;;;;;4997344;28;20482;-71
2023/03/09 02:32:20;;;;;;;19.92;10.88;;;1.40;99.90;;;;;;5013942;28;20058;-71
2023/03/09 02:34:46;;;;;;;19.48;10.93;;;1.40;99.90;;;;;;4997187;28;20050;-71
2023/03/09 02:37:35;;;;;;;21.33;11.90;;;1.40;99.90;;;;;;5013611;28;20438;-71
2023/03/09 02:40:05;;;;;;;19.13;10.85;;;1.40;99.90;;;;;;5012283;28;20610;-71
2023/03/09 02:42:31;;;;;;;18.88;10.45;;;1.40;99.90;;;;;;4997226;28;20060;-72
2023/03/09 02:44:57;;;;;;;18.60;11.15;;;1.40;99.90;;;;;;5013195;28;20045;-71
2023/03/09 02:47:23;;;;;;;17.92;10.73;;;1.50;99.90;;;;;;4991850;28;20105;-71
2023/03/09 02:49:49;;;;;;;20.00;9.63;;;1.50;99.90;;;;;;4996902;28;20046;-71
2023/03/09 02:52:14;;;;;;;19.00;11.38;;;1.50;99.90;;;;;;5012533;28;20560;-71
2023/03/09 02:54:40;;;;;;;18.48;10.90;;;1.50;99.90;;;;;;5012846;28;20072;-71
2023/03/09 02:57:06;;;;;;;23.15;12.20;;;1.50;99.90;;;;;;4980846;28;20136;-72
2023/03/09 02:59:32;;;;;;;18.48;10.55;;;1.40;99.90;;;;;;4981516;28;20136;-71
2023/03/09 03:01:57;;;;;;;18.20;10.45;;;1.50;99.90;;;;;;4996401;28;20478;-71
2023/03/09 03:04:25;;;;;;;18.00;10.73;;;1.50;99.90;;;;;;4997111;28;20851;-71
2023/03/09 03:06:50;;;;;;;20.05;11.77;;;1.50;99.90;;;;;;5012763;28;20056;-71
2023/03/09 03:09:16;;;;;;;21.42;12.15;;;1.60;99.90;;;;;;4996769;28;20370;-71
2023/03/09 03:11:42;;;;;;;19.65;11.63;;;1.50;99.90;;;;;;4964332;28;20046;-71
2023/03/09 03:14:07;;;;;;;23.77;12.85;;;1.60;99.90;;;;;;4996862;28;20050;-71
2023/03/09 03:16:34;;;;;;;20.58;12.23;;;1.40;99.90;;;;;;5012713;28;20132;-71
2023/03/09 03:18:59;;;;;;;23.70;11.98;;;1.40;99.90;;;;;;4996344;28;20042;-71
2023/03/09 03:21:25;;;;;;;20.40;12.45;;;1.50;99.90;;;;;;5012350;28;20131;-71
2023/03/09 03:23:51;;;;;;;20.75;12.10;;;1.60;99.90;;;;;;5011580;28;20050;-71
2023/03/09 03:26:17;;;;;;;22.67;13.63;;;1.60;99.90;;;;;;4978741;28;20170;-71
2023/03/09 03:28:42;;;;;;;23.55;12.70;;;1.60;99.90;;;;;;4966035;28;20571;-72
2023/03/09 03:31:09;;;;;;;22.05;12.68;;;1.60;99.90;;;;;;4980007;28;20041;-71
2023/03/09 03:33:34;;;;;;;24.63;13.88;;;1.60;99.90;;;;;;4979303;28;20128;-72
2023/03/09 03:36:00;;;;;;;21.30;12.85;;;1.50;99.90;;;;;;4979235;28;20044;-71
2023/03/09 03:38:26;;;;;;;22.85;13.52;;;1.50;99.90;;;;;;5011923;28;20082;-71
2023/03/09 03:40:52;;;;;;;22.95;13.68;;;1.60;99.90;;;;;;4992163;28;20057;-71
2023/03/09 03:43:18;;;;;;;26.67;14.75;;;1.60;99.90;;;;;;5011648;28;20046;-71
2023/03/09 03:45:44;;;;;;;23.80;13.15;;;1.60;99.90;;;;;;4993099;28;20049;-71
2023/03/09 03:48:10;;;;;;;25.83;14.73;;;1.60;99.90;;;;;;4996477;28;20049;-71
2023/03/09 03:50:35;;;;;;;29.83;16.05;;;1.50;99.90;;;;;;5016234;28;20037;-71
2023/03/09 03:53:01;;;;;;;30.00;15.77;;;1.50;99.90;;;;;;5017502;28;20055;-71
2023/03/09 03:55:27;;;;;;;28.85;15.63;;;1.40;99.90;;;;;;4998230;28;20048;-71
2023/03/09 03:57:53;;;;;;;31.02;16.63;;;1.30;99.90;;;;;;5012374;28;20374;-72
2023/03/09 04:00:22;;;;;;;29.55;16.48;;;1.40;99.90;;;;;;5010776;28;20049;-71
2023/03/09 04:02:48;;;;;;;29.75;16.25;;;1.40;99.90;;;;;;5012239;28;20129;-71
2023/03/09 04:05:14;;;;;;;29.75;17.17;;;1.40;99.90;;;;;;5007173;28;20176;-71
2023/03/09 04:07:39;;;;;;;35.45;17.92;;;1.40;99.90;;;;;;4995469;28;20049;-71
2023/03/09 04:10:06;;;;;;;33.70;17.95;;;1.40;99.90;;;;;;5011480;28;20054;-72
2023/03/09 04:12:31;;;;;;;35.60;18.55;;;1.50;99.90;;;;;;4979510;28;20073;-71
2023/03/09 04:14:57;;;;;;;38.88;19.08;;;1.50;99.90;;;;;;5011558;28;20084;-71
2023/03/09 04:17:23;;;;;;;43.08;20.15;;;1.50;99.90;;;;;;4993958;28;20128;-71
2023/03/09 04:19:48;;;;;;;28.90;15.05;;;1.40;99.90;;;;;;4995580;28;20053;-71
2023/03/09 04:22:14;;;;;;;33.20;17.63;;;1.50;99.90;;;;;;4994589;28;20046;-71
2023/03/09 04:24:40;;;;;;;29.35;15.77;;;1.40;99.90;;;;;;5008050;28;20041;-71
2023/03/09 04:27:06;;;;;;;33.05;17.40;;;1.50;99.90;;;;;;4995023;28;20038;-71
2023/03/09 04:29:31;;;;;;;28.75;16.17;;;1.40;99.90;;;;;;4979122;28;20049;-71
2023/03/09 04:31:57;;;;;;;28.60;16.05;;;1.40;99.90;;;;;;4993080;28;20358;-71
2023/03/09 04:34:23;;;;;;;28.08;15.98;;;1.50;99.90;;;;;;4995030;28;20130;-71
2023/03/09 04:36:48;;;;;;;30.70;16.13;;;1.50;99.90;;;;;;4976229;28;20077;-72
2023/03/09 04:39:15;;;;;;;28.80;15.63;;;1.50;99.90;;;;;;4978920;28;20111;-71
2023/03/09 04:41:40;;;;;;;29.63;15.90;;;1.50;99.90;;;;;;4978390;28;20128;-72
2023/03/09 04:44:06;;;;;;;29.30;15.82;;;1.50;99.90;;;;;;5005953;28;20042;-72
2023/03/09 04:46:32;;;;;;;32.92;17.67;;;1.50;99.90;;;;;;5011099;28;20577;-72
2023/03/09 04:48:58;;;;;;;30.70;17.25;;;1.60;99.90;;;;;;4994101;28;20046;-72
2023/03/09 04:51:24;;;;;;;30.77;16.45;;;1.50;99.90;;;;;;5007325;28;20457;-72
2023/03/09 04:53:50;;;;;;;30.67;16.73;;;1.40;99.90;;;;;;5010335;28;20072;-72
2023/03/09 04:56:15;;;;;;;31.45;17.60;;;1.50;99.90;;;;;;4992833;28;20049;-72
2023/03/09 04:58:41;;;;;;;29.83;16.77;;;1.40;99.90;;;;;;4978461;28;20200;-72
2023/03/09 05:01:07;;;;;;;31.90;17.85;;;1.50;99.90;;;;;;5011896;28;20122;-72
2023/03/09 05:03:33;;;;;;;26.33;16.00;;;1.40;99.90;;;;;;5010267;28;20045;-72
2023/03/09 05:05:58;;;;;;;42.05;21.23;;;1.50;99.90;;;;;;4990597;28;20097;-72
2023/03/09 05:08:24;;;;;;;48.08;23.38;;;1.40;99.90;;;;;;5008131;28;20050;-72
2023/03/09 05:10:50;;;;;;;35.22;18.90;;;1.40;99.90;;;;;;5014668;28;20154;-72
2023/03/09 05:13:16;;;;;;;30.27;17.30;;;1.40;99.90;;;;;;5010609;28;20495;-72
2023/03/09 05:15:41;;;;;;;28.20;15.98;;;1.50;99.90;;;;;;5010403;28;20107;-72
2023/03/09 05:18:08;;;;;;;32.65;17.98;;;1.50;99.90;;;;;;4993370;28;20111;-71
2023/03/09 05:20:34;;;;;;;30.73;18.05;;;1.40;99.90;;;;;;5010165;28;20058;-72
2023/03/09 05:23:00;;;;;;;29.67;16.75;;;1.40;99.90;;;;;;4993522;28;20131;-72
2023/03/09 05:25:26;;;;;;;28.65;15.30;;;1.50;99.90;;;;;;5009565;28;20045;-72
2023/03/09 05:27:52;;;;;;;33.53;17.52;;;1.40;99.90;;;;;;4975614;28;20370;-72
2023/03/09 05:30:19;;;;;;;26.92;15.65;;;1.50;99.90;;;;;;5012226;28;20041;-72
2023/03/09 05:32:45;;;;;;;29.65;15.90;;;1.40;99.90;;;;;;5010615;28;20417;-72
2023/03/09 05:35:10;;;;;;;28.45;15.85;;;1.60;99.90;;;;;;5003700;28;20048;-71
2023/03/09 05:37:36;;;;;;;32.97;18.40;;;1.50;99.90;;;;;;4976358;28;20065;-72
2023/03/09 05:40:04;;;;;;;25.85;15.13;;;1.40;99.90;;;;;;4980706;28;20081;-72
2023/03/09 05:42:31;;;;;;;36.80;20.25;;;1.40;99.90;;;;;;5009400;28;20089;-72
2023/03/09 05:44:57;;;;;;;35.70;18.92;;;1.50;99.90;;;;;;5010355;28;20049;-72
2023/03/09 05:47:24;;;;;;;31.10;17.38;;;1.50;99.90;;;;;;5010326;28;20477;-72
2023/03/09 05:49:49;;;;;;;36.17;17.85;;;1.60;99.90;;;;;;5006889;28;20045;-72
2023/03/09 05:52:15;;;;;;;29.92;16.33;;;1.60;99.90;;;;;;4979532;28;20439;-71
2023/03/09 05:54:41;;;;;;;24.48;14.15;;;1.50;99.90;;;;;;5013521;28;20054;-71
2023/03/09 05:57:11;;;;;;;24.55;14.52;;;1.50;99.90;;;;;;5014203;28;20057;-71
2023/03/09 05:59:37;;;;;;;26.55;15.18;;;1.50;99.90;;;;;;4982175;28;20060;-71
2023/03/09 06:02:03;;;;;;;24.08;14.38;;;1.60;99.90;;;;;;5013592;28;20046;-71
2023/03/09 06:04:28;;;;;;;25.25;15.07;;;1.60;99.90;;;;;;4994105;28;20104;-71
2023/03/09 06:06:54;;;;;;;27.75;16.38;;;1.50;99.90;;;;;;5014125;28;20608;-71
2023/03/09 06:09:20;;;;;;;29.98;16.52;;;1.60;99.90;;;;;;4997247;28;20140;-72
2023/03/09 06:11:46;;;;;;;26.77;15.77;;;1.50;99.90;;;;;;4996348;28;20045;-72
2023/03/09 06:14:12;;;;;;;29.30;15.70;;;1.40;99.90;;;;;;4981329;28;20046;-71
2023/03/09 06:16:37;;;;;;;27.25;15.73;;;1.50;99.90;;;;;;5010635;28;20541;-71
2023/03/09 06:19:03;;;;;;;33.40;18.05;;;1.50;99.90;;;;;;4981352;28;20115;-72
2023/03/09 06:21:30;;;;;;;28.80;15.90;;;1.60;99.90;;;;;;4997052;28;20108;-71
2023/03/09 06:23:57;;;;;;;25.60;14.93;;;1.50;99.90;;;;;;5012005;28;20084;-72
2023/03/09 06:26:23;;;;;;;25.67;14.82;;;1.60;99.90;;;;;;4997263;28;20152;-72
2023/03/09 06:28:49;;;;;;;26.77;15.32;;;1.70;99.90;;;;;;4980242;28;20541;-72
2023/03/09 06:31:16;;;;;;;23.52;13.88;;;1.70;99.90;;;;;;4993640;28;20046;-72
2023/03/09 06:33:42;;;;;;;22.45;14.07;;;1.80;99.90;;;;;;5010832;28;20096;-72
2023/03/09 06:36:13;;;;;;;25.60;14.90;;;1.70;99.90;;;;;;4996805;28;20056;-73
2023/03/09 06:38:39;;;;;;;24.52;14.32;;;1.80;99.90;;;;;;4990540;28;20050;-72
2023/03/09 06:41:05;;;;;;;24.58;14.10;;;1.70;99.90;;;;;;4996341;28;20058;-72
2023/03/09 06:43:30;;;;;;;23.85;13.63;;;1.60;99.90;;;;;;5014094;28;20459;-72
2023/03/09 06:45:56;;;;;;;25.20;14.40;;;1.80;99.90;;;;;;4980351;28;20450;-71
2023/03/09 06:48:22;;;;;;;22.35;13.38;;;1.80;99.90;;;;;;4996637;28;20759;-71
2023/03/09 06:50:51;;;;;;;20.85;12.77;;;1.70;99.90;;;;;;5012583;28;20056;-72
2023/03/09 06:53:17;;;;;;;24.15;14.18;;;1.80;99.90;;;;;;5010466;28;20684;-71
2023/03/09 06:55:43;;;;;;;25.00;14.02;;;1.90;99.90;;;;;;4995435;28;20050;-71
2023/03/09 06:58:09;;;;;;;24.15;14.50;;;1.90;99.90;;;;;;4996419;28;20057;-72
2023/03/09 07:00:37;;;;;;;30.27;16.10;;;1.90;99.90;;;;;;4992613;28;20458;-71
2023/03/09 07:03:04;;;;;;;21.48;13.45;;;1.80;99.90;;;;;;4998707;28;20088;-71
2023/03/09 07:05:30;;;;;;;23.50;14.05;;;1.80;99.90;;;;;;4999630;28;20641;-72
2023/03/09 07:07:56;;;;;;;24.27;14.13;;;1.80;99.90;;;;;;4978403;28;20133;-72
2023/03/09 07:10:21;;;;;;;23.40;14.52;;;1.80;99.90;;;;;;4997000;28;20061;-72
2023/03/09 07:12:48;;;;;;;23.60;14.32;;;1.80;99.90;;;;;;5006945;28;20064;-71
2023/03/09 07:15:13;;;;;;;23.33;13.20;;;2.00;99.90;;;;;;4997130;28;20137;-74
2023/03/09 07:17:39;;;;;;;23.52;12.60;;;1.90;99.90;;;;;;4996369;28;20518;-74
2023/03/09 07:20:05;;;;;;;23.13;13.55;;;2.00;99.90;;;;;;4997032;28;20056;-73
2023/03/09 07:22:31;;;;;;;26.98;14.73;;;2.10;99.90;;;;;;4996718;28;20124;-73
2023/03/09 07:24:57;;;;;;;22.05;13.60;;;2.20;99.90;;;;;;4965066;28;20144;-73
2023/03/09 07:27:23;;;;;;;21.55;13.13;;;2.20;99.90;;;;;;4980769;28;20486;-73
2023/03/09 07:29:49;;;;;;;20.30;12.98;;;2.30;99.90;;;;;;4992962;28;20507;-73
2023/03/09 07:32:14;;;;;;;23.90;14.50;;;2.30;99.90;;;;;;4995567;28;20049;-73
2023/03/09 07:34:40;;;;;;;22.80;14.65;;;2.40;99.90;;;;;;4995991;28;20077;-73
2023/03/09 07:37:06;;;;;;;25.95;15.32;;;2.30;99.90;;;;;;4993956;28;20065;-73
2023/03/09 07:39:32;;;;;;;26.40;16.10;;;2.40;99.90;;;;;;4993541;28;20057;-74
2023/03/09 07:41:58;;;;;;;24.63;14.23;;;2.50;99.90;;;;;;4994627;28;20042;-74
2023/03/09 07:44:24;;;;;;;22.90;14.43;;;2.50;99.90;;;;;;4996024;28;20133;-73
2023/03/09 07:46:49;;;;;;;23.98;14.05;;;2.50;99.90;;;;;;4992386;28;20037;-72
2023/03/09 07:49:15;;;;;;;28.20;15.38;;;2.60;99.90;;;;;;5018538;28;20092;-72
2023/03/09 08:01:47;;;;;;;27.02;14.02;;;2.50;99.90;;;;;;5006176;28;20524;-72
2023/03/09 08:04:15;;;;;;;23.20;13.38;;;2.40;99.90;;;;;;4987255;28;20814;-72
2023/03/09 08:06:41;;;;;;;24.77;13.38;;;2.40;99.90;;;;;;4977335;28;20081;-72
2023/03/09 08:09:08;;;;;;;22.58;13.82;;;2.40;99.90;;;;;;4973235;28;20046;-71
2023/03/09 08:11:34;;;;;;;21.92;13.57;;;2.30;99.90;;;;;;4991023;28;20133;-72
2023/03/09 12:05:26;;;;;;;25.98;15.40;;;3.20;99.90;;;;;;3759878;28;20120;-72
2023/03/09 12:08:13;;;;;;;28.85;16.08;;;3.20;99.90;;;;;;4979042;28;20051;-72
2023/03/09 12:10:49;;;;;;;32.97;17.70;;;3.10;99.90;;;;;;4955881;28;20088;-72
2023/03/09 12:13:20;;;;;;;28.48;16.45;;;3.00;99.90;;;;;;4977890;28;20054;-72
2023/03/09 12:16:02;;;;;;;26.95;15.20;;;3.20;99.90;;;;;;4973625;28;20047;-71
2023/03/09 12:18:35;;;;;;;29.30;16.50;;;3.20;99.90;;;;;;4978382;28;20392;-73
2023/03/09 12:21:05;;;;;;;29.40;16.10;;;3.20;99.90;;;;;;4978644;28;20494;-71
2023/03/09 12:23:40;;;;;;;26.63;16.17;;;3.20;99.90;;;;;;4957320;28;20058;-71
2023/03/09 12:26:27;;;;;;;28.55;16.15;;;3.40;99.90;;;;;;4962061;28;20113;-72
2023/03/09 12:29:01;;;;;;;28.50;16.48;;;3.30;99.90;;;;;;4980899;28;20126;-72
2023/03/09 12:31:36;;;;;;;31.42;17.15;;;3.30;99.90;;;;;;4972469;28;20081;-72
2023/03/09 12:34:24;;;;;;;27.73;15.80;;;3.30;99.90;;;;;;4952502;28;20065;-72
2023/03/09 12:36:51;;;;;;;26.08;14.98;;;3.40;99.90;;;;;;4972087;28;20054;-72
2023/03/09 12:39:26;;;;;;;26.65;15.52;;;3.40;99.90;;;;;;4989900;28;20481;-72
2023/03/09 12:42:08;;;;;;;32.28;17.52;;;3.50;99.90;;;;;;4968817;28;20056;-72
2023/03/09 12:44:43;;;;;;;31.67;18.23;;;3.30;99.90;;;;;;4973778;28;20391;-72
2023/03/09 12:47:36;;;;;;;28.65;17.33;;;3.40;99.90;;;;;;4979258;28;20093;-72
2023/03/09 12:50:04;;;;;;;29.08;16.05;;;3.40;99.90;;;;;;4967473;28;20061;-72
2023/03/09 12:52:34;;;;;;;31.00;17.02;;;3.30;99.90;;;;;;4956041;28;20487;-72
2023/03/09 12:55:19;;;;;;;30.27;17.83;;;3.40;99.90;;;;;;4951706;28;20460;-71
2023/03/09 12:57:45;;;;;;;33.58;18.75;;;3.30;99.90;;;;;;4984570;28;20133;-72
2023/03/09 13:00:27;;;;;;;30.30;17.70;;;3.30;99.90;;;;;;4970841;28;20189;-72
2023/03/09 13:03:14;;;;;;;29.05;16.65;;;3.40;99.90;;;;;;4968159;28;20680;-72
2023/03/09 13:05:43;;;;;;;27.65;16.48;;;3.40;99.90;;;;;;4982865;28;20046;-72
2023/03/09 13:08:28;;;;;;;31.65;17.77;;;3.30;99.90;;;;;;4979276;28;20038;-72
2023/03/09 13:11:23;;;;;;;32.78;17.40;;;3.30;99.90;;;;;;4978229;28;20055;-72
2023/03/09 13:14:11;;;;;;;29.65;17.15;;;3.40;99.90;;;;;;4982471;28;20082;-72
2023/03/09 13:16:37;;;;;;;28.50;17.00;;;3.30;99.90;;;;;;4985092;28;20744;-72
2023/03/09 13:19:18;;;;;;;28.30;15.82;;;3.40;99.90;;;;;;4949597;28;20542;-72
2023/03/09 13:21:56;;;;;;;30.23;16.55;;;3.40;99.90;;;;;;4966395;28;20042;-72
2023/03/09 13:24:38;;;;;;;43.00;20.05;;;3.50;99.90;;;;;;4972843;28;20133;-72
2023/03/09 13:27:11;;;;;;;40.13;18.75;;;3.40;99.90;;;;;;4983981;28;20073;-72
2023/03/09 13:29:39;;;;;;;36.38;19.80;;;3.20;99.90;;;;;;4990371;28;20069;-72
2023/03/09 13:32:05;;;;;;;33.53;16.97;;;3.10;99.90;;;;;;4988036;28;20046;-71
2023/03/09 13:34:34;;;;;;;30.35;17.27;;;3.20;99.90;;;;;;4990202;28;20486;-71
2023/03/09 13:37:12;;;;;;;31.30;17.58;;;3.30;99.90;;;;;;4986365;28;20156;-72
2023/03/09 13:39:37;;;;;;;30.08;17.38;;;3.30;99.90;;;;;;4987323;28;20046;-71
2023/03/09 13:42:04;;;;;;;35.97;19.40;;;3.20;99.90;;;;;;4977823;28;20046;-72
2023/03/09 13:44:30;;;;;;;31.67;18.13;;;3.20;99.90;;;;;;4963910;28;20077;-72
2023/03/09 13:46:59;;;;;;;30.83;17.10;;;3.40;99.90;;;;;;4972770;28;20447;-72
2023/03/09 13:49:25;;;;;;;30.45;16.98;;;3.60;99.90;;;;;;4951546;28;20097;-72
2023/03/09 13:51:52;;;;;;;34.50;19.75;;;3.60;99.90;;;;;;4982832;28;20042;-72
2023/03/09 13:54:34;;;;;;;33.45;18.77;;;3.70;99.90;;;;;;4964354;28;20557;-72
2023/03/09 13:57:01;;;;;;;33.83;18.25;;;3.60;99.90;;;;;;4990367;28;20051;-71
2023/03/09 13:59:30;;;;;;;30.67;17.15;;;3.70;99.90;;;;;;4972178;28;20053;-72
2023/03/09 14:02:01;;;;;;;29.88;17.05;;;3.80;99.90;;;;;;4948721;28;20171;-71
2023/03/09 14:04:28;;;;;;;28.20;16.58;;;3.70;99.90;;;;;;4964138;28;20352;-72
2023/03/09 14:06:54;;;;;;;31.15;17.40;;;3.70;99.90;;;;;;4984721;28;20057;-72
2023/03/09 14:09:29;;;;;;;31.10;17.08;;;3.50;99.90;;;;;;4957670;28;20073;-71
2023/03/09 14:11:55;;;;;;;30.60;17.50;;;3.40;99.90;;;;;;4985062;28;20039;-72
2023/03/09 14:14:21;;;;;;;27.73;16.95;;;3.50;99.90;;;;;;4978000;28;20046;-72
2023/03/09 14:16:49;;;;;;;29.95;17.08;;;3.30;99.90;;;;;;4971552;28;20491;-72
2023/03/09 14:19:20;;;;;;;29.48;17.00;;;3.30;99.90;;;;;;4974312;28;20038;-72
2023/03/09 14:21:49;;;;;;;28.27;17.02;;;3.40;99.90;;;;;;4982428;28;20046;-72
2023/03/09 14:24:29;;;;;;;35.90;19.73;;;3.40;99.90;;;;;;4959273;28;20128;-72
2023/03/09 14:26:55;;;;;;;32.85;18.88;;;3.30;99.90;;;;;;4969936;28;20062;-71
2023/03/09 14:29:22;;;;;;;33.60;17.83;;;3.30;99.90;;;;;;4972085;28;20068;-72
2023/03/09 14:31:48;;;;;;;33.25;17.38;;;3.30;99.90;;;;;;4984072;28;20066;-72
2023/03/09 14:34:20;;;;;;;32.17;18.08;;;3.20;99.90;;;;;;4983919;28;20085;-72
2023/03/09 14:36:49;;;;;;;35.83;18.33;;;3.30;99.90;;;;;;4984919;28;20046;-71
2023/03/09 14:39:35;;;;;;;39.83;19.23;;;3.20;99.90;;;;;;4949578;28;20058;-71
2023/03/09 14:42:07;;;;;;;33.45;16.88;;;3.20;99.90;;;;;;4969993;28;20119;-71
2023/03/09 14:44:37;;;;;;;32.47;17.05;;;3.30;99.90;;;;;;4986219;28;20058;-72
2023/03/09 14:47:07;;;;;;;32.60;18.55;;;3.30;99.90;;;;;;4984913;28;20053;-72
2023/03/09 14:49:32;;;;;;;32.58;17.65;;;3.30;99.90;;;;;;4990098;28;20565;-72
2023/03/09 14:51:58;;;;;;;33.05;17.80;;;3.30;99.90;;;;;;4972324;28;20039;-72
2023/03/09 14:54:27;;;;;;;33.55;18.25;;;3.20;99.90;;;;;;4991037;28;20057;-72
2023/03/09 14:56:53;;;;;;;37.20;19.85;;;3.20;99.90;;;;;;4993473;28;20073;-72
2023/03/09 14:59:20;;;;;;;34.72;19.83;;;3.20;99.90;;;;;;4983016;28;20172;-72
2023/03/09 15:01:53;;;;;;;34.13;18.80;;;3.00;99.90;;;;;;4953999;28;20046;-72
2023/03/09 15:04:20;;;;;;;33.50;18.33;;;3.20;99.90;;;;;;4982360;28;20042;-72
2023/03/09 15:06:46;;;;;;;32.58;18.60;;;3.20;99.90;;;;;;4985711;28;20141;-72
2023/03/09 15:09:12;;;;;;;34.03;18.40;;;3.20;99.90;;;;;;4966530;28;20038;-72
2023/03/09 15:11:39;;;;;;;32.63;18.35;;;3.30;99.90;;;;;;4974182;28;20042;-72
2023/03/09 15:14:09;;;;;;;36.78;19.08;;;3.30;99.90;;;;;;4975180;28;20055;-72
2023/03/09 15:16:34;;;;;;;33.22;18.98;;;3.20;99.90;;;;;;4943260;28;20075;-72
2023/03/09 15:19:00;;;;;;;38.13;19.67;;;3.30;99.90;;;;;;4968766;28;20120;-72
2023/03/09 15:21:27;;;;;;;33.38;20.13;;;3.30;99.90;;;;;;4988818;28;20133;-72
2023/03/09 15:23:52;;;;;;;34.58;19.35;;;3.20;99.90;;;;;;4990324;28;20141;-72
2023/03/09 15:26:19;;;;;;;35.38;20.50;;;3.20;99.90;;;;;;4961235;28;20069;-73
2023/03/09 15:28:46;;;;;;;33.95;19.05;;;3.20;99.90;;;;;;4968154;28;20074;-73
2023/03/09 15:31:12;;;;;;;34.30;20.60;;;3.20;99.90;;;;;;4969543;28;20043;-73
2023/03/09 15:33:39;;;;;;;31.80;18.98;;;3.20;99.90;;;;;;4990558;28;20364;-73
2023/03/09 15:36:08;;;;;;;35.13;19.40;;;3.30;99.90;;;;;;4985940;28;20050;-73
2023/03/09 15:38:34;;;;;;;34.00;19.90;;;3.20;99.90;;;;;;4972959;28;20053;-73
2023/03/09 15:41:00;;;;;;;37.17;20.33;;;3.20;99.90;;;;;;4988112;28;20042;-73
2023/03/09 15:43:25;;;;;;;33.83;18.92;;;3.20;99.90;;;;;;4975193;28;20482;-74
2023/03/09 15:45:51;;;;;;;42.55;21.92;;;3.30;99.90;;;;;;4976320;28;20387;-73
2023/03/09 15:48:17;;;;;;;35.90;20.42;;;3.20;99.90;;;;;;4986908;28;20558;-72
2023/03/09 15:50:50;;;;;;;33.03;19.42;;;3.10;99.90;;;;;;4970496;28;20050;-72
2023/03/09 15:53:15;;;;;;;36.53;20.45;;;3.00;99.90;;;;;;4979322;28;20531;-73
2023/03/09 15:55:41;;;;;;;35.88;20.08;;;3.10;99.90;;;;;;4969618;28;20050;-73
2023/03/09 15:58:09;;;;;;;37.00;20.45;;;3.10;99.90;;;;;;4987416;28;20154;-72
2023/03/09 16:00:37;;;;;;;39.05;21.08;;;3.00;99.90;;;;;;4972199;28;20079;-73
2023/03/09 16:03:03;;;;;;;;;;;2.90;99.90;;;;;;4981606;28;20061;-72
2023/03/09 16:05:29;;;;;;;48.40;23.88;;;2.90;99.90;;;;;;4989008;28;20250;-72
2023/03/09 16:07:54;;;;;;;41.55;21.48;;;2.80;99.90;;;;;;4991775;28;20038;-73
2023/03/09 16:10:21;;;;;;;42.88;20.90;;;2.80;99.90;;;;;;4985768;28;20050;-72
2023/03/09 16:12:48;;;;;;;37.08;20.52;;;2.80;99.90;;;;;;4954269;28;20125;-72
2023/03/09 16:15:14;;;;;;;37.08;19.58;;;2.80;99.90;;;;;;4987264;28;20115;-73
2023/03/09 16:17:40;;;;;;;37.78;20.27;;;2.80;99.90;;;;;;4960930;28;20042;-72
2023/03/09 16:20:14;;;;;;;33.13;18.73;;;2.80;99.90;;;;;;4970199;28;20046;-72
2023/03/09 16:22:46;;;;;;;37.95;20.30;;;2.80;99.90;;;;;;4988900;28;20546;-72
2023/03/09 16:25:11;;;;;;;41.97;21.75;;;2.80;99.90;;;;;;4970226;28;20157;-72
2023/03/09 16:27:37;;;;;;;32.95;19.38;;;2.90;99.90;;;;;;4989400;28;20146;-72
2023/03/09 16:30:04;;;;;;;36.05;20.80;;;2.70;99.90;;;;;;4977758;28;20053;-72
2023/03/09 16:32:29;;;;;;;36.72;20.45;;;2.70;99.90;;;;;;4985194;28;20066;-72
2023/03/09 16:34:55;;;;;;;35.58;20.50;;;2.60;99.90;;;;;;4990837;28;20042;-72
2023/03/09 16:37:21;;;;;;;39.10;22.25;;;2.70;99.90;;;;;;4980340;28;20688;-72
2023/03/09 16:39:47;;;;;;;36.78;20.58;;;2.50;99.90;;;;;;4966277;28;20047;-72
2023/03/09 16:42:13;;;;;;;38.90;20.48;;;2.50;99.90;;;;;;4984960;28;20113;-72
2023/03/09 16:44:49;;;;;;;41.53;22.65;;;2.40;99.90;;;;;;4970393;28;20046;-72